createdAt,value
2018-02-23T00:02:09.030Z,4.05
2018-02-23T00:10:25.166Z,3.42
2018-02-23T00:12:53.078Z,3.50
2018-02-23T00:15:20.557Z,5.25
2018-02-23T00:20:40.570Z,2.70
2018-02-23T00:23:07.989Z,5.37
2018-02-23T00:25:35.420Z,3.90
2018-02-23T00:28:02.852Z,5.80
2018-02-23T00:30:30.278Z,3.25
2018-02-23T00:32:57.721Z,2.97
2018-02-23T00:35:25.160Z,4.18
2018-02-23T00:37:52.604Z,4.45
2018-02-23T00:40:20.013Z,3.67
2018-02-23T00:42:47.449Z,4.25
2018-02-23T00:45:14.884Z,2.97
2018-02-23T00:47:42.309Z,2.53
2018-02-23T00:50:09.741Z,4.10
2018-02-23T00:52:37.168Z,4.80
2018-02-23T00:55:04.602Z,3.67
2018-02-23T00:57:32.089Z,3.25
2018-02-23T00:59:59.555Z,4.12
2018-02-23T01:02:27.006Z,3.37
2018-02-23T01:04:54.440Z,2.30
2018-02-23T01:07:21.863Z,3.67
2018-02-23T01:09:49.295Z,3.15
2018-02-23T01:12:17.117Z,3.75
2018-02-23T01:14:44.545Z,4.00
2018-02-23T01:17:11.964Z,3.30
2018-02-23T01:19:39.388Z,3.67
2018-02-23T01:22:06.825Z,3.55
2018-02-23T01:24:34.253Z,4.05
2018-02-23T01:27:02.080Z,2.67
2018-02-23T01:29:29.523Z,4.05
2018-02-23T01:31:56.961Z,3.55
2018-02-23T01:34:24.392Z,2.80
2018-02-23T01:36:52.574Z,3.55
2018-02-23T01:39:20.052Z,3.60
2018-02-23T01:41:47.479Z,3.70
2018-02-23T01:44:15.305Z,2.35
2018-02-23T01:46:42.740Z,2.53
2018-02-23T01:49:10.196Z,2.25
2018-02-23T01:51:37.631Z,2.87
2018-02-23T01:54:05.064Z,3.00
2018-02-23T01:56:32.501Z,2.67
2018-02-23T01:58:59.922Z,3.75
2018-02-23T02:01:27.354Z,3.50
2018-02-23T02:03:54.784Z,2.20
2018-02-23T02:06:22.627Z,3.03
2018-02-23T02:08:50.051Z,3.10
2018-02-23T02:11:17.472Z,3.67
2018-02-23T02:13:44.895Z,2.83
2018-02-23T02:16:12.333Z,2.33
2018-02-23T02:18:39.763Z,3.55
2018-02-23T02:21:07.199Z,3.40
2018-02-23T02:23:35.016Z,2.65
2018-02-23T02:26:02.452Z,2.80
2018-02-23T02:28:29.876Z,3.20
2018-02-23T02:30:57.313Z,1.83
2018-02-23T02:33:24.758Z,3.22
2018-02-23T02:35:52.193Z,4.35
2018-02-23T02:38:19.613Z,3.12
2018-02-23T02:40:47.052Z,2.97
2018-02-23T02:43:14.864Z,2.37
2018-02-23T02:45:42.301Z,3.37
2018-02-23T02:48:09.739Z,2.65
2018-02-23T02:50:37.176Z,3.10
2018-02-23T02:53:05.160Z,2.87
2018-02-23T02:55:32.595Z,3.05
2018-02-23T02:58:00.413Z,3.97
2018-02-23T03:00:27.866Z,2.83
2018-02-23T03:02:55.297Z,2.70
2018-02-23T03:05:22.729Z,2.58
2018-02-23T03:07:50.552Z,2.62
2018-02-23T03:10:17.993Z,3.83
2018-02-23T03:12:45.416Z,3.28
2018-02-23T03:15:13.251Z,2.95
2018-02-23T03:17:40.675Z,4.18
2018-02-23T03:20:08.092Z,2.67
2018-02-23T03:22:35.914Z,2.75
2018-02-23T03:25:03.337Z,2.72
2018-02-23T03:27:30.768Z,3.30
2018-02-23T03:29:58.580Z,2.30
2018-02-23T03:32:26.012Z,2.87
2018-02-23T03:34:53.438Z,2.30
2018-02-23T03:37:20.884Z,2.28
2018-02-23T03:39:48.308Z,1.87
2018-02-23T03:42:15.757Z,3.65
2018-02-23T03:44:43.527Z,4.78
2018-02-23T03:47:10.961Z,2.65
2018-02-23T03:49:42.985Z,4.37
2018-02-23T03:52:10.410Z,1.80
2018-02-23T03:54:37.828Z,2.85
2018-02-23T03:57:05.277Z,2.33
2018-02-23T03:59:33.087Z,2.70
2018-02-23T04:02:00.621Z,1.92
2018-02-23T04:04:28.065Z,3.42
2018-02-23T04:06:55.463Z,3.87
2018-02-23T04:09:22.886Z,3.65
2018-02-23T04:11:50.382Z,1.45
2018-02-23T04:14:17.823Z,3.87
2018-02-23T04:16:45.247Z,3.40
2018-02-23T04:19:12.677Z,1.95
2018-02-23T04:21:40.146Z,3.00
2018-02-23T04:24:07.550Z,2.85
2018-02-23T04:26:35.016Z,1.42
2018-02-23T04:29:02.492Z,2.50
2018-02-23T04:31:29.913Z,2.28
2018-02-23T04:33:57.408Z,1.75
2018-02-23T04:36:24.900Z,3.08
2018-02-23T04:38:52.329Z,2.22
2018-02-23T04:41:19.774Z,3.55
2018-02-23T04:46:40.389Z,2.70
2018-02-23T04:52:00.653Z,3.55
2018-02-23T04:54:28.076Z,2.42
2018-02-23T04:56:55.573Z,2.25
2018-02-23T04:59:22.988Z,3.87
2018-02-23T05:01:50.812Z,2.20
2018-02-23T05:04:18.227Z,3.35
2018-02-23T05:06:45.684Z,1.92
2018-02-23T05:09:13.118Z,2.92
2018-02-23T05:11:40.968Z,1.17
2018-02-23T05:14:08.382Z,1.80
2018-02-23T05:16:36.402Z,1.15
2018-02-23T05:19:03.808Z,1.67
2018-02-23T05:21:31.249Z,3.33
2018-02-23T05:23:58.694Z,3.75
2018-02-23T05:26:26.308Z,1.35
2018-02-23T05:28:53.776Z,2.47
2018-02-23T05:31:21.212Z,2.70
2018-02-23T05:33:48.657Z,2.75
2018-02-23T05:36:16.074Z,2.58
2018-02-23T05:38:43.892Z,2.65
2018-02-23T05:41:11.324Z,3.60
2018-02-23T05:43:38.760Z,2.00
2018-02-23T05:46:06.188Z,2.40
2018-02-23T05:48:33.608Z,2.55
2018-02-23T05:51:01.037Z,2.35
2018-02-23T05:53:28.474Z,2.65
2018-02-23T05:55:56.308Z,3.37
2018-02-23T05:58:23.733Z,3.37
2018-02-23T06:00:51.172Z,4.80
2018-02-23T06:03:18.675Z,5.40
2018-02-23T06:05:46.084Z,3.72
2018-02-23T06:08:13.516Z,2.40
2018-02-23T06:10:41.342Z,2.42
2018-02-23T06:13:08.781Z,3.03
2018-02-23T06:15:41.796Z,2.75
2018-02-23T06:18:09.324Z,2.30
2018-02-23T06:20:36.736Z,2.10
2018-02-23T06:23:04.161Z,3.70
2018-02-23T06:25:31.590Z,2.10
2018-02-23T06:27:59.027Z,2.92
2018-02-23T06:30:26.450Z,3.90
2018-02-23T06:32:53.889Z,3.12
2018-02-23T06:35:21.303Z,2.03
2018-02-23T06:37:48.736Z,4.30
2018-02-23T06:40:16.180Z,4.93
2018-02-23T06:42:43.604Z,2.70
2018-02-23T06:45:11.037Z,4.12
2018-02-23T06:47:38.460Z,2.15
2018-02-23T06:50:06.293Z,2.15
2018-02-23T06:52:33.719Z,2.40
2018-02-23T06:55:01.168Z,3.72
2018-02-23T06:57:28.623Z,1.75
2018-02-23T06:59:56.048Z,3.30
2018-02-23T07:02:23.886Z,3.15
2018-02-23T07:04:51.325Z,2.87
2018-02-23T07:07:18.764Z,3.10
2018-02-23T07:09:46.180Z,2.95
2018-02-23T07:12:16.751Z,2.78
2018-02-23T07:14:46.677Z,5.93
2018-02-23T07:17:14.128Z,4.18
2018-02-23T07:19:42.128Z,3.60
2018-02-23T07:22:09.587Z,1.60
2018-02-23T07:24:39.841Z,2.08
2018-02-23T07:27:09.485Z,2.67
2018-02-23T07:32:11.150Z,2.72
2018-02-23T07:34:40.363Z,3.78
2018-02-23T07:37:08.733Z,2.45
2018-02-23T07:39:36.726Z,2.87
2018-02-23T07:42:04.177Z,2.80
2018-02-23T07:44:32.522Z,3.05
2018-02-23T07:46:59.969Z,2.42
2018-02-23T07:49:28.869Z,2.58
2018-02-23T07:51:57.107Z,1.60
2018-02-23T07:54:24.564Z,2.80
2018-02-23T07:56:53.149Z,2.92
2018-02-23T07:59:20.619Z,3.92
2018-02-23T08:01:49.002Z,2.17
2018-02-23T08:04:16.466Z,4.65
2018-02-23T08:06:44.984Z,15.48
2018-02-23T08:09:14.060Z,3.83
2018-02-23T08:11:43.287Z,10.43
2018-02-23T08:14:10.833Z,8.13
2018-02-23T08:16:38.313Z,9.18
2018-02-23T08:19:05.828Z,6.90
2018-02-23T08:21:33.236Z,5.57
2018-02-23T08:24:00.676Z,6.07
2018-02-23T08:26:28.105Z,7.50
2018-02-23T08:28:55.534Z,6.97
2018-02-23T08:31:23.780Z,7.22
2018-02-23T08:33:51.198Z,3.35
2018-02-23T08:36:18.627Z,4.75
2018-02-23T08:38:46.066Z,6.95
2018-02-23T08:41:13.507Z,4.15
2018-02-23T08:43:40.932Z,4.95
2018-02-23T08:46:08.365Z,2.45
2018-02-23T08:48:35.799Z,4.93
2018-02-23T08:51:03.232Z,3.80
2018-02-23T08:53:31.049Z,4.65
2018-02-23T08:55:58.481Z,5.70
2018-02-23T08:58:25.915Z,6.10
2018-02-23T09:00:53.744Z,5.37
2018-02-23T09:03:21.172Z,6.20
2018-02-23T09:05:48.624Z,3.78
2018-02-23T09:08:16.050Z,4.37
2018-02-23T09:10:43.881Z,4.55
2018-02-23T09:13:11.315Z,6.85
2018-02-23T09:15:38.732Z,4.05
2018-02-23T09:18:06.171Z,3.87
2018-02-23T09:20:33.600Z,6.47
2018-02-23T09:23:01.035Z,4.25
2018-02-23T09:25:28.467Z,5.80
2018-02-23T09:27:55.909Z,3.70
2018-02-23T09:30:23.731Z,7.50
2018-02-23T09:33:02.861Z,5.37
2018-02-23T09:35:30.285Z,5.95
2018-02-23T09:37:57.713Z,5.05
2018-02-23T09:40:25.141Z,5.28
2018-02-23T09:42:52.574Z,5.22
2018-02-23T09:45:20.005Z,6.80
2018-02-23T09:47:47.433Z,6.60
2018-02-23T09:50:14.913Z,6.05
2018-02-23T09:52:42.365Z,6.47
2018-02-23T09:55:09.768Z,4.07
2018-02-23T09:57:37.205Z,3.62
2018-02-23T10:00:04.632Z,3.90
2018-02-23T10:02:32.468Z,5.43
2018-02-23T10:04:59.918Z,6.22
2018-02-23T10:07:27.344Z,4.20
2018-02-23T10:09:54.786Z,7.45
2018-02-23T10:12:22.215Z,5.40
2018-02-23T10:14:50.032Z,6.20
2018-02-23T10:17:17.469Z,5.87
2018-02-23T10:19:45.137Z,6.47
2018-02-23T10:22:12.581Z,5.07
2018-02-23T10:24:40.029Z,5.18
2018-02-23T10:27:07.476Z,7.15
2018-02-23T10:29:34.910Z,7.15
2018-02-23T10:32:02.336Z,6.37
2018-02-23T10:34:29.781Z,5.18
2018-02-23T10:36:57.212Z,6.55
2018-02-23T10:39:24.640Z,7.05
2018-02-23T10:41:52.084Z,6.05
2018-02-23T10:44:19.507Z,5.82
2018-02-23T10:46:46.932Z,6.32
2018-02-23T10:49:14.347Z,5.37
2018-02-23T10:51:41.787Z,4.00
2018-02-23T10:54:09.216Z,6.15
2018-02-23T10:56:36.642Z,5.18
2018-02-23T10:59:04.472Z,4.75
2018-02-23T11:01:31.894Z,4.03
2018-02-23T11:03:59.325Z,6.18
2018-02-23T11:06:27.136Z,5.32
2018-02-23T11:08:54.560Z,3.45
2018-02-23T11:11:21.976Z,4.47
2018-02-23T11:13:49.407Z,6.62
2018-02-23T11:16:17.220Z,5.85
2018-02-23T11:18:44.644Z,4.85
2018-02-23T11:21:12.065Z,4.32
2018-02-23T11:23:39.498Z,5.70
2018-02-23T11:26:06.924Z,5.90
2018-02-23T11:28:34.366Z,5.37
2018-02-23T11:31:01.778Z,3.80
2018-02-23T11:33:29.212Z,4.28
2018-02-23T11:35:57.029Z,4.90
2018-02-23T11:38:24.496Z,6.07
2018-02-23T11:40:51.921Z,6.62
2018-02-23T11:43:19.393Z,6.90
2018-02-23T11:45:46.820Z,5.95
2018-02-23T11:48:14.249Z,6.57
2018-02-23T11:50:42.064Z,6.07
2018-02-23T11:53:09.496Z,6.40
2018-02-23T11:55:36.938Z,5.57
2018-02-23T11:58:07.259Z,6.05
2018-02-23T12:00:34.660Z,6.07
2018-02-23T12:03:02.093Z,6.50
2018-02-23T12:05:29.518Z,5.70
2018-02-23T12:07:56.961Z,7.00
2018-02-23T12:10:24.382Z,6.93
2018-02-23T12:12:51.814Z,6.65
2018-02-23T12:15:19.261Z,8.45
2018-02-23T12:17:47.684Z,5.95
2018-02-23T12:20:15.110Z,6.43
2018-02-23T12:22:42.536Z,5.50
2018-02-23T12:25:10.366Z,6.80
2018-02-23T12:27:37.784Z,6.18
2018-02-23T12:30:05.232Z,7.10
2018-02-23T12:32:32.649Z,7.03
2018-02-23T12:35:00.102Z,6.80
2018-02-23T12:37:27.514Z,5.57
2018-02-23T12:39:54.960Z,6.20
2018-02-23T12:42:22.380Z,7.65
2018-02-23T12:44:49.809Z,5.82
2018-02-23T12:47:17.227Z,4.97
2018-02-23T12:49:44.657Z,7.90
2018-02-23T12:52:12.477Z,5.22
2018-02-23T12:54:39.905Z,7.53
2018-02-23T12:57:07.332Z,7.43
2018-02-23T12:59:34.764Z,7.35
2018-02-23T13:02:02.189Z,8.07
2018-02-23T13:04:29.620Z,8.52
2018-02-23T13:06:57.432Z,5.60
2018-02-23T13:09:24.856Z,7.50
2018-02-23T13:11:52.277Z,5.07
2018-02-23T13:14:19.709Z,5.85
2018-02-23T13:16:47.142Z,6.00
2018-02-23T13:19:14.561Z,6.85
2018-02-23T13:21:41.998Z,4.30
2018-02-23T13:24:09.438Z,7.05
2018-02-23T13:26:36.857Z,6.75
2018-02-23T13:29:04.300Z,9.30
2018-02-23T13:31:31.724Z,7.78
2018-02-23T13:33:59.152Z,6.07
2018-02-23T13:36:26.649Z,6.05
2018-02-23T13:38:54.028Z,9.07
2018-02-23T13:41:27.133Z,9.15
2018-02-23T13:43:54.561Z,7.12
2018-02-23T13:46:22.377Z,8.13
2018-02-23T13:48:49.811Z,8.82
2018-02-23T13:51:17.235Z,8.77
2018-02-23T13:53:45.587Z,8.32
2018-02-23T13:56:13.032Z,6.90
2018-02-23T13:58:40.456Z,7.57
2018-02-23T14:01:07.894Z,5.55
2018-02-23T14:03:35.319Z,7.20
2018-02-23T14:06:03.657Z,7.90
2018-02-23T14:08:31.128Z,7.53
2018-02-23T14:10:58.575Z,8.85
2018-02-23T14:13:26.067Z,7.85
2018-02-23T14:15:53.448Z,8.32
2018-02-23T14:18:20.876Z,6.85
2018-02-23T14:20:48.305Z,7.85
2018-02-23T14:23:28.280Z,6.87
2018-02-23T14:25:55.706Z,7.62
2018-02-23T14:28:23.124Z,6.70
2018-02-23T14:30:50.548Z,7.40
2018-02-23T14:33:17.985Z,6.55
2018-02-23T14:35:45.419Z,7.80
2018-02-23T14:38:12.839Z,6.75
2018-02-23T14:40:40.264Z,7.47
2018-02-23T14:43:07.698Z,7.18
2018-02-23T14:45:35.140Z,7.72
2018-02-23T14:48:02.576Z,8.95
2018-02-23T14:50:41.746Z,8.32
2018-02-23T14:53:09.160Z,6.00
2018-02-23T14:55:36.613Z,6.97
2018-02-23T14:58:04.051Z,6.95
2018-02-23T15:00:31.481Z,6.65
2018-02-23T15:02:58.896Z,6.45
2018-02-23T15:05:26.333Z,7.30
2018-02-23T15:07:53.764Z,5.60
2018-02-23T15:10:21.192Z,6.40
2018-02-23T15:12:48.616Z,6.00
2018-02-23T15:15:16.051Z,7.50
2018-02-23T15:17:43.904Z,7.22
2018-02-23T15:20:11.305Z,6.87
2018-02-23T15:22:38.717Z,7.62
2018-02-23T15:25:06.156Z,7.15
2018-02-23T15:27:33.589Z,6.50
2018-02-23T15:30:01.016Z,7.37
2018-02-23T15:32:30.202Z,8.68
2018-02-23T15:34:57.634Z,7.32
2018-02-23T15:37:25.050Z,6.60
2018-02-23T15:39:52.505Z,6.43
2018-02-23T15:42:19.924Z,7.03
2018-02-23T15:44:47.784Z,8.63
2018-02-23T15:47:15.183Z,6.15
2018-02-23T15:49:48.216Z,12.32
2018-02-23T15:52:15.631Z,8.75
2018-02-23T15:54:43.412Z,7.05
2018-02-23T16:00:15.608Z,7.25
2018-02-23T16:02:43.039Z,6.18
2018-02-23T16:05:10.470Z,7.55
2018-02-23T16:07:37.916Z,11.90
2018-02-23T16:10:05.353Z,6.05
2018-02-23T16:12:32.772Z,9.48
2018-02-23T16:15:00.219Z,9.00
2018-02-23T16:17:27.647Z,9.57
2018-02-23T16:19:55.068Z,7.65
2018-02-23T16:22:22.490Z,8.13
2018-02-23T16:24:49.922Z,5.78
2018-02-23T16:27:17.373Z,10.25
2018-02-23T16:29:44.808Z,8.02
2018-02-23T16:32:12.229Z,8.55
2018-02-23T16:34:39.653Z,7.93
2018-02-23T16:37:07.084Z,8.07
2018-02-23T16:39:34.915Z,8.77
2018-02-23T16:42:02.360Z,12.25
2018-02-23T16:44:29.781Z,9.10
2018-02-23T16:46:57.204Z,10.35
2018-02-23T16:49:25.029Z,7.72
2018-02-23T16:51:52.470Z,11.73
2018-02-23T16:54:19.888Z,8.30
2018-02-23T16:56:47.345Z,16.10
2018-02-23T16:59:15.203Z,14.18
2018-02-23T17:01:42.651Z,7.05
2018-02-23T17:04:10.480Z,7.57
2018-02-23T17:06:37.925Z,7.15
2018-02-23T17:09:05.369Z,9.45
2018-02-23T17:11:32.954Z,9.90
2018-02-23T17:14:00.389Z,9.98
2018-02-23T17:16:27.838Z,8.50
2018-02-23T17:18:55.272Z,6.12
2018-02-23T17:21:22.779Z,7.68
2018-02-23T17:23:50.248Z,6.28
2018-02-23T17:26:17.707Z,7.65
2018-02-23T17:28:45.298Z,8.70
2018-02-23T17:31:12.736Z,7.45
2018-02-23T17:33:40.190Z,11.55
2018-02-23T17:36:07.626Z,12.30
2018-02-23T17:38:35.082Z,8.65
2018-02-23T17:41:02.508Z,8.68
2018-02-23T17:43:30.845Z,6.50
2018-02-23T17:45:58.301Z,8.70
2018-02-23T17:48:25.752Z,6.87
2018-02-23T17:50:54.202Z,5.75
2018-02-23T17:53:21.628Z,8.48
2018-02-23T17:55:49.053Z,7.57
2018-02-23T17:58:16.476Z,8.85
2018-02-23T18:00:44.022Z,6.85
2018-02-23T18:03:11.462Z,6.22
2018-02-23T18:05:38.897Z,7.18
2018-02-23T18:08:07.685Z,8.18
2018-02-23T18:10:35.553Z,5.70
2018-02-23T18:13:02.984Z,6.60
2018-02-23T18:15:30.403Z,7.37
2018-02-23T18:17:57.832Z,7.25
2018-02-23T18:20:25.256Z,6.80
2018-02-23T18:22:52.709Z,8.40
2018-02-23T18:25:20.130Z,8.52
2018-02-23T18:27:47.569Z,6.82
2018-02-23T18:30:14.985Z,7.32
2018-02-23T18:32:42.408Z,8.20
2018-02-23T18:35:10.379Z,5.32
2018-02-23T18:37:37.819Z,6.78
2018-02-23T18:40:05.240Z,8.30
2018-02-23T18:42:33.071Z,8.05
2018-02-23T18:45:00.505Z,7.47
2018-02-23T18:47:27.999Z,8.43
2018-02-23T18:49:55.466Z,11.15
2018-02-23T18:52:22.883Z,16.70
2018-02-23T18:54:54.253Z,14.23
2018-02-23T18:57:17.990Z,13.18
2018-02-23T18:59:45.430Z,8.80
2018-02-23T19:02:13.229Z,9.20
2018-02-23T19:04:40.677Z,13.50
2018-02-23T19:07:08.101Z,7.80
2018-02-23T19:09:35.561Z,12.35
2018-02-23T19:12:03.017Z,14.82
2018-02-23T19:14:30.440Z,15.23
2018-02-23T19:16:57.888Z,10.65
2018-02-23T19:19:25.324Z,11.73
2018-02-23T19:21:52.760Z,10.45
2018-02-23T19:24:20.210Z,9.32
2018-02-23T19:26:47.642Z,12.23
2018-02-23T19:29:15.072Z,15.32
2018-02-23T19:31:42.514Z,19.60
2018-02-23T19:34:09.968Z,8.20
2018-02-23T19:36:37.400Z,9.63
2018-02-23T19:39:04.837Z,9.82
2018-02-23T19:41:32.281Z,5.53
2018-02-23T19:43:59.713Z,8.45
2018-02-23T19:46:27.152Z,7.62
2018-02-23T19:48:54.576Z,9.07
2018-02-23T19:51:22.012Z,9.73
2018-02-23T19:53:49.440Z,10.70
2018-02-23T19:56:17.282Z,10.40
2018-02-23T19:58:44.711Z,13.05
2018-02-23T20:01:12.144Z,10.57
2018-02-23T20:03:39.580Z,9.90
2018-02-23T20:06:07.021Z,7.85
2018-02-23T20:08:34.477Z,10.23
2018-02-23T20:11:02.029Z,9.30
2018-02-23T20:13:29.504Z,7.68
2018-02-23T20:15:56.916Z,9.25
2018-02-23T20:18:24.347Z,8.48
2018-02-23T20:20:51.822Z,7.12
2018-02-23T20:23:19.213Z,8.82
2018-02-23T20:25:46.644Z,9.18
2018-02-23T20:28:14.085Z,7.78
2018-02-23T20:30:41.524Z,7.87
2018-02-23T20:33:08.948Z,7.47
2018-02-23T20:35:36.367Z,5.18
2018-02-23T20:38:03.813Z,7.50
2018-02-23T20:40:31.245Z,7.72
2018-02-23T20:42:58.697Z,10.10
2018-02-23T20:45:26.167Z,8.32
2018-02-23T20:47:53.601Z,9.57
2018-02-23T20:50:21.028Z,12.05
2018-02-23T20:52:48.508Z,8.85
2018-02-23T20:55:16.343Z,9.05
2018-02-23T20:57:43.791Z,9.93
2018-02-23T21:00:11.208Z,6.22
2018-02-23T21:02:38.649Z,10.50
2018-02-23T21:05:06.485Z,7.18
2018-02-23T21:07:33.961Z,7.10
2018-02-23T21:10:01.380Z,5.43
2018-02-23T21:12:28.828Z,7.60
2018-02-23T21:14:56.261Z,9.25
2018-02-23T21:17:23.718Z,8.77
2018-02-23T21:19:51.243Z,10.23
2018-02-23T21:22:18.676Z,12.75
2018-02-23T21:24:46.147Z,12.93
2018-02-23T21:27:13.571Z,9.40
2018-02-23T21:29:41.024Z,10.43
2018-02-23T21:32:08.688Z,9.10
2018-02-23T21:34:36.101Z,9.00
2018-02-23T21:37:03.924Z,9.80
2018-02-23T21:39:31.358Z,8.38
2018-02-23T21:41:59.369Z,8.30
2018-02-23T21:44:38.640Z,8.30
2018-02-23T21:47:06.073Z,7.25
2018-02-23T21:49:33.901Z,7.57
2018-02-23T21:52:01.343Z,6.43
2018-02-23T21:54:28.779Z,9.45
2018-02-23T21:56:56.368Z,11.25
2018-02-23T21:59:23.811Z,8.45
2018-02-23T22:01:51.235Z,6.47
2018-02-23T22:04:19.063Z,10.07
2018-02-23T22:06:46.524Z,13.02
2018-02-23T22:09:13.961Z,7.87
2018-02-23T22:11:41.393Z,9.25
2018-02-23T22:14:08.829Z,10.07
2018-02-23T22:16:36.656Z,13.32
2018-02-23T22:19:04.093Z,7.65
2018-02-23T22:21:31.547Z,14.05
2018-02-23T22:23:58.968Z,9.40
2018-02-23T22:26:26.421Z,8.18
2018-02-23T22:28:53.851Z,10.15
2018-02-23T22:31:21.280Z,6.22
2018-02-23T22:33:48.760Z,9.68
2018-02-23T22:36:16.210Z,11.30
2018-02-23T22:38:43.664Z,7.37
2018-02-23T22:41:11.197Z,6.18
2018-02-23T22:43:38.581Z,4.35
2018-02-23T22:46:06.095Z,10.85
2018-02-23T22:48:33.497Z,6.93
2018-02-23T22:51:01.737Z,6.50
2018-02-23T22:53:29.210Z,6.65
2018-02-23T22:55:57.671Z,9.90
2018-02-23T22:58:26.101Z,9.75
2018-02-23T23:00:54.777Z,7.72
2018-02-23T23:03:22.893Z,6.97
2018-02-23T23:05:51.352Z,8.65
2018-02-23T23:08:19.627Z,8.50
2018-02-23T23:10:48.406Z,6.43
2018-02-23T23:13:15.897Z,13.95
2018-02-23T23:15:44.058Z,9.02
2018-02-23T23:18:11.908Z,8.80
2018-02-23T23:20:39.744Z,6.57
2018-02-23T23:23:07.244Z,6.60
2018-02-23T23:25:35.088Z,9.40
2018-02-23T23:28:03.342Z,5.70
2018-02-23T23:30:30.787Z,7.15
2018-02-23T23:32:59.761Z,8.23
2018-02-23T23:35:27.216Z,10.50
2018-02-23T23:37:54.678Z,8.73
2018-02-23T23:40:24.063Z,6.10
2018-02-23T23:42:51.536Z,5.82
2018-02-23T23:45:19.017Z,5.57
2018-02-23T23:47:46.465Z,7.53
2018-02-23T23:50:15.849Z,4.47
2018-02-23T23:52:44.425Z,7.60
2018-02-23T23:55:11.883Z,9.93
2018-02-23T23:57:39.338Z,8.25
